sensor_id;sensor_type;location;lat;lon;timestamp;temperature;humidity
21039;DHT22;10678;51.002;4.786;2022-07-05T00:00:43;16.60;99.90
21039;DHT22;10678;51.002;4.786;2022-07-05T00:03:09;16.60;99.90
21039;DHT22;10678;51.002;4.786;2022-07-05T00:05:36;16.40;99.90
21039;DHT22;10678;51.002;4.786;2022-07-05T00:08:02;16.40;99.90
21039;DHT22;10678;51.002;4.786;2022-07-05T00:10:28;16.30;99.90
21039;DHT22;10678;51.002;4.786;2022-07-05T00:12:54;16.20;99.90
21039;DHT22;10678;51.002;4.786;2022-07-05T00:15:20;16.20;99.90
21039;DHT22;10678;51.002;4.786;2022-07-05T00:17:45;16.20;99.90
21039;DHT22;10678;51.002;4.786;2022-07-05T00:20:11;16.20;99.90
21039;DHT22;10678;51.002;4.786;2022-07-05T00:22:37;16.20;99.90
21039;DHT22;10678;51.002;4.786;2022-07-05T00:25:03;16.20;99.90
21039;DHT22;10678;51.002;4.786;2022-07-05T00:27:29;16.10;99.90
21039;DHT22;10678;51.002;4.786;2022-07-05T00:29:54;16.10;99.90
21039;DHT22;10678;51.002;4.786;2022-07-05T00:32:20;16.20;99.90
21039;DHT22;10678;51.002;4.786;2022-07-05T00:34:45;16.20;99.90
21039;DHT22;10678;51.002;4.786;2022-07-05T00:37:11;16.20;99.90
21039;DHT22;10678;51.002;4.786;2022-07-05T00:39:37;16.10;99.90
21039;DHT22;10678;51.002;4.786;2022-07-05T00:42:03;16.10;99.90
21039;DHT22;10678;51.002;4.786;2022-07-05T00:44:33;16.00;99.90
21039;DHT22;10678;51.002;4.786;2022-07-05T00:47:01;16.00;99.90
21039;DHT22;10678;51.002;4.786;2022-07-05T00:49:28;16.00;99.90
21039;DHT22;10678;51.002;4.786;2022-07-05T00:51:53;16.00;99.90
21039;DHT22;10678;51.002;4.786;2022-07-05T00:54:19;16.00;99.90
21039;DHT22;10678;51.002;4.786;2022-07-05T00:56:45;16.00;99.90
21039;DHT22;10678;51.002;4.786;2022-07-05T00:59:11;15.90;99.90
21039;DHT22;10678;51.002;4.786;2022-07-05T01:01:36;15.90;99.90
21039;DHT22;10678;51.002;4.786;2022-07-05T01:04:02;15.90;99.90
21039;DHT22;10678;51.002;4.786;2022-07-05T01:06:27;15.80;99.90
21039;DHT22;10678;51.002;4.786;2022-07-05T01:08:53;15.80;99.90
21039;DHT22;10678;51.002;4.786;2022-07-05T01:11:19;15.70;99.90
21039;DHT22;10678;51.002;4.786;2022-07-05T01:13:45;15.70;99.90
21039;DHT22;10678;51.002;4.786;2022-07-05T01:16:13;15.60;99.90
21039;DHT22;10678;51.002;4.786;2022-07-05T01:18:38;15.60;99.90
21039;DHT22;10678;51.002;4.786;2022-07-05T01:21:05;15.60;99.90
21039;DHT22;10678;51.002;4.786;2022-07-05T01:23:31;15.60;99.90
21039;DHT22;10678;51.002;4.786;2022-07-05T01:26:00;15.60;99.90
21039;DHT22;10678;51.002;4.786;2022-07-05T01:28:27;15.60;99.90
21039;DHT22;10678;51.002;4.786;2022-07-05T01:30:52;15.30;99.90
21039;DHT22;10678;51.002;4.786;2022-07-05T01:33:18;15.30;99.90
21039;DHT22;10678;51.002;4.786;2022-07-05T01:35:44;15.30;99.90
21039;DHT22;10678;51.002;4.786;2022-07-05T01:38:11;15.30;99.90
21039;DHT22;10678;51.002;4.786;2022-07-05T01:40:38;15.50;99.90
21039;DHT22;10678;51.002;4.786;2022-07-05T01:43:06;15.50;99.90
21039;DHT22;10678;51.002;4.786;2022-07-05T01:45:32;15.30;99.90
21039;DHT22;10678;51.002;4.786;2022-07-05T01:48:12;15.00;99.90
21039;DHT22;10678;51.002;4.786;2022-07-05T01:50:52;15.20;99.90
21039;DHT22;10678;51.002;4.786;2022-07-05T01:53:20;15.20;99.90
21039;DHT22;10678;51.002;4.786;2022-07-05T01:55:47;15.20;99.90
21039;DHT22;10678;51.002;4.786;2022-07-05T01:58:13;15.20;99.90
21039;DHT22;10678;51.002;4.786;2022-07-05T02:00:45;15.00;99.90
21039;DHT22;10678;51.002;4.786;2022-07-05T02:03:12;14.70;99.90
21039;DHT22;10678;51.002;4.786;2022-07-05T02:05:38;14.70;99.90
21039;DHT22;10678;51.002;4.786;2022-07-05T02:08:04;14.80;99.90
21039;DHT22;10678;51.002;4.786;2022-07-05T02:10:30;15.00;99.90
21039;DHT22;10678;51.002;4.786;2022-07-05T02:12:55;15.10;99.90
21039;DHT22;10678;51.002;4.786;2022-07-05T02:15:21;15.10;99.90
21039;DHT22;10678;51.002;4.786;2022-07-05T02:17:47;14.90;99.90
21039;DHT22;10678;51.002;4.786;2022-07-05T02:20:12;14.70;99.90
21039;DHT22;10678;51.002;4.786;2022-07-05T02:22:38;14.70;99.90
21039;DHT22;10678;51.002;4.786;2022-07-05T02:25:04;14.90;99.90
21039;DHT22;10678;51.002;4.786;2022-07-05T02:27:29;15.00;99.90
21039;DHT22;10678;51.002;4.786;2022-07-05T02:29:55;15.00;99.90
21039;DHT22;10678;51.002;4.786;2022-07-05T02:32:21;14.90;99.90
21039;DHT22;10678;51.002;4.786;2022-07-05T02:34:46;14.90;99.90
21039;DHT22;10678;51.002;4.786;2022-07-05T02:37:12;14.90;99.90
21039;DHT22;10678;51.002;4.786;2022-07-05T02:39:37;14.90;99.90
21039;DHT22;10678;51.002;4.786;2022-07-05T02:42:03;15.00;99.90
21039;DHT22;10678;51.002;4.786;2022-07-05T02:44:29;14.90;99.90
21039;DHT22;10678;51.002;4.786;2022-07-05T02:46:54;14.90;99.90
21039;DHT22;10678;51.002;4.786;2022-07-05T02:49:20;14.90;99.90
21039;DHT22;10678;51.002;4.786;2022-07-05T02:51:46;14.90;99.90
21039;DHT22;10678;51.002;4.786;2022-07-05T02:54:11;14.80;99.90
21039;DHT22;10678;51.002;4.786;2022-07-05T02:56:37;14.90;99.90
21039;DHT22;10678;51.002;4.786;2022-07-05T02:59:02;14.80;99.90
21039;DHT22;10678;51.002;4.786;2022-07-05T03:01:29;14.60;99.90
21039;DHT22;10678;51.002;4.786;2022-07-05T03:03:54;14.50;99.90
21039;DHT22;10678;51.002;4.786;2022-07-05T03:06:20;14.60;99.90
21039;DHT22;10678;51.002;4.786;2022-07-05T03:08:45;14.60;99.90
21039;DHT22;10678;51.002;4.786;2022-07-05T03:11:11;14.60;99.90
21039;DHT22;10678;51.002;4.786;2022-07-05T03:13:36;14.60;99.90
21039;DHT22;10678;51.002;4.786;2022-07-05T03:16:02;14.60;99.90
21039;DHT22;10678;51.002;4.786;2022-07-05T03:18:28;14.40;99.90
21039;DHT22;10678;51.002;4.786;2022-07-05T03:20:53;14.30;99.90
21039;DHT22;10678;51.002;4.786;2022-07-05T03:23:19;14.30;99.90
21039;DHT22;10678;51.002;4.786;2022-07-05T03:25:45;14.40;99.90
21039;DHT22;10678;51.002;4.786;2022-07-05T03:28:10;14.50;99.90
21039;DHT22;10678;51.002;4.786;2022-07-05T03:30:36;14.50;99.90
21039;DHT22;10678;51.002;4.786;2022-07-05T03:33:02;14.50;99.90
21039;DHT22;10678;51.002;4.786;2022-07-05T03:35:27;14.50;99.90
21039;DHT22;10678;51.002;4.786;2022-07-05T03:37:53;14.50;99.90
21039;DHT22;10678;51.002;4.786;2022-07-05T03:40:19;14.40;99.90
21039;DHT22;10678;51.002;4.786;2022-07-05T03:42:44;14.50;99.90
21039;DHT22;10678;51.002;4.786;2022-07-05T03:45:10;14.50;99.90
21039;DHT22;10678;51.002;4.786;2022-07-05T03:47:36;14.40;99.90
21039;DHT22;10678;51.002;4.786;2022-07-05T03:50:03;14.40;99.90
21039;DHT22;10678;51.002;4.786;2022-07-05T03:52:29;14.40;99.90
21039;DHT22;10678;51.002;4.786;2022-07-05T03:54:55;14.50;99.90
21039;DHT22;10678;51.002;4.786;2022-07-05T03:57:21;14.50;99.90
21039;DHT22;10678;51.002;4.786;2022-07-05T03:59:46;14.50;99.90
21039;DHT22;10678;51.002;4.786;2022-07-05T04:02:12;14.50;99.90
21039;DHT22;10678;51.002;4.786;2022-07-05T04:04:38;14.50;99.90
21039;DHT22;10678;51.002;4.786;2022-07-05T04:07:03;14.50;99.90
21039;DHT22;10678;51.002;4.786;2022-07-05T04:09:29;14.50;99.90
21039;DHT22;10678;51.002;4.786;2022-07-05T04:11:55;14.60;99.90
21039;DHT22;10678;51.002;4.786;2022-07-05T04:14:20;14.50;99.90
21039;DHT22;10678;51.002;4.786;2022-07-05T04:16:46;14.60;99.90
21039;DHT22;10678;51.002;4.786;2022-07-05T04:19:11;14.50;99.90
21039;DHT22;10678;51.002;4.786;2022-07-05T04:21:37;14.40;99.90
21039;DHT22;10678;51.002;4.786;2022-07-05T04:24:03;14.40;99.90
21039;DHT22;10678;51.002;4.786;2022-07-05T04:26:29;14.40;99.90
21039;DHT22;10678;51.002;4.786;2022-07-05T04:28:55;14.50;99.90
21039;DHT22;10678;51.002;4.786;2022-07-05T04:31:20;14.50;99.90
21039;DHT22;10678;51.002;4.786;2022-07-05T04:33:46;14.50;99.90
21039;DHT22;10678;51.002;4.786;2022-07-05T04:36:11;14.50;99.90
21039;DHT22;10678;51.002;4.786;2022-07-05T04:38:37;14.60;99.90
21039;DHT22;10678;51.002;4.786;2022-07-05T04:41:03;14.60;99.90
21039;DHT22;10678;51.002;4.786;2022-07-05T04:43:28;14.80;99.90
21039;DHT22;10678;51.002;4.786;2022-07-05T04:45:54;14.90;99.90
21039;DHT22;10678;51.002;4.786;2022-07-05T04:48:20;14.90;99.90
21039;DHT22;10678;51.002;4.786;2022-07-05T04:50:45;15.10;99.90
21039;DHT22;10678;51.002;4.786;2022-07-05T04:53:11;15.10;99.90
21039;DHT22;10678;51.002;4.786;2022-07-05T04:55:37;15.10;99.90
21039;DHT22;10678;51.002;4.786;2022-07-05T04:58:02;15.20;99.90
21039;DHT22;10678;51.002;4.786;2022-07-05T05:00:28;15.20;99.90
21039;DHT22;10678;51.002;4.786;2022-07-05T05:02:53;15.30;99.90
21039;DHT22;10678;51.002;4.786;2022-07-05T05:05:19;15.30;99.90
21039;DHT22;10678;51.002;4.786;2022-07-05T05:07:45;15.40;99.90
21039;DHT22;10678;51.002;4.786;2022-07-05T05:10:11;15.50;99.90
21039;DHT22;10678;51.002;4.786;2022-07-05T05:12:38;15.50;99.90
21039;DHT22;10678;51.002;4.786;2022-07-05T05:15:04;15.50;99.90
21039;DHT22;10678;51.002;4.786;2022-07-05T05:17:37;15.60;99.90
21039;DHT22;10678;51.002;4.786;2022-07-05T05:20:15;15.80;99.90
21039;DHT22;10678;51.002;4.786;2022-07-05T05:22:41;15.90;99.90
21039;DHT22;10678;51.002;4.786;2022-07-05T05:25:08;16.00;99.90
21039;DHT22;10678;51.002;4.786;2022-07-05T05:27:34;15.90;99.90
21039;DHT22;10678;51.002;4.786;2022-07-05T05:29:59;16.00;99.90
21039;DHT22;10678;51.002;4.786;2022-07-05T05:32:25;15.90;99.90
21039;DHT22;10678;51.002;4.786;2022-07-05T05:34:51;16.10;99.90
21039;DHT22;10678;51.002;4.786;2022-07-05T05:37:16;16.20;99.90
21039;DHT22;10678;51.002;4.786;2022-07-05T05:39:42;16.30;99.90
21039;DHT22;10678;51.002;4.786;2022-07-05T05:42:08;16.50;99.90
21039;DHT22;10678;51.002;4.786;2022-07-05T05:44:33;16.60;99.90
21039;DHT22;10678;51.002;4.786;2022-07-05T05:46:59;16.70;99.90
21039;DHT22;10678;51.002;4.786;2022-07-05T05:49:24;16.90;99.90
21039;DHT22;10678;51.002;4.786;2022-07-05T05:51:50;17.10;99.90
21039;DHT22;10678;51.002;4.786;2022-07-05T05:54:16;17.20;99.90
21039;DHT22;10678;51.002;4.786;2022-07-05T05:56:41;17.40;99.90
21039;DHT22;10678;51.002;4.786;2022-07-05T05:59:07;17.50;99.90
21039;DHT22;10678;51.002;4.786;2022-07-05T06:01:34;17.60;99.90
21039;DHT22;10678;51.002;4.786;2022-07-05T06:03:59;17.70;99.90
21039;DHT22;10678;51.002;4.786;2022-07-05T06:06:25;18.00;99.90
21039;DHT22;10678;51.002;4.786;2022-07-05T06:08:52;18.20;99.90
21039;DHT22;10678;51.002;4.786;2022-07-05T06:11:17;18.40;99.90
21039;DHT22;10678;51.002;4.786;2022-07-05T06:13:43;18.80;99.90
21039;DHT22;10678;51.002;4.786;2022-07-05T06:16:09;19.10;99.90
21039;DHT22;10678;51.002;4.786;2022-07-05T06:18:35;19.60;99.90
21039;DHT22;10678;51.002;4.786;2022-07-05T06:21:00;20.10;99.90
21039;DHT22;10678;51.002;4.786;2022-07-05T06:23:26;20.50;99.90
21039;DHT22;10678;51.002;4.786;2022-07-05T06:25:52;20.70;99.90
21039;DHT22;10678;51.002;4.786;2022-07-05T06:28:18;20.70;99.90
21039;DHT22;10678;51.002;4.786;2022-07-05T06:30:43;20.80;99.90
21039;DHT22;10678;51.002;4.786;2022-07-05T06:33:09;21.10;99.90
21039;DHT22;10678;51.002;4.786;2022-07-05T06:35:35;21.10;99.90
21039;DHT22;10678;51.002;4.786;2022-07-05T06:38:06;21.30;99.90
21039;DHT22;10678;51.002;4.786;2022-07-05T06:40:37;21.40;99.90
21039;DHT22;10678;51.002;4.786;2022-07-05T06:43:10;21.50;99.90
21039;DHT22;10678;51.002;4.786;2022-07-05T06:45:36;21.70;99.90
21039;DHT22;10678;51.002;4.786;2022-07-05T06:48:07;22.20;99.90
21039;DHT22;10678;51.002;4.786;2022-07-05T06:50:35;22.60;99.90
21039;DHT22;10678;51.002;4.786;2022-07-05T06:53:02;22.90;99.90
21039;DHT22;10678;51.002;4.786;2022-07-05T06:55:27;23.80;99.90
21039;DHT22;10678;51.002;4.786;2022-07-05T06:57:58;24.60;99.90
21039;DHT22;10678;51.002;4.786;2022-07-05T07:00:24;25.40;99.90
21039;DHT22;10678;51.002;4.786;2022-07-05T07:02:50;26.20;99.90
21039;DHT22;10678;51.002;4.786;2022-07-05T07:05:15;26.80;99.90
21039;DHT22;10678;51.002;4.786;2022-07-05T07:07:41;27.40;99.90
21039;DHT22;10678;51.002;4.786;2022-07-05T07:10:25;28.60;99.90
21039;DHT22;10678;51.002;4.786;2022-07-05T07:12:51;29.70;99.90
21039;DHT22;10678;51.002;4.786;2022-07-05T07:15:16;30.30;98.60
21039;DHT22;10678;51.002;4.786;2022-07-05T07:17:42;31.10;95.40
21039;DHT22;10678;51.002;4.786;2022-07-05T07:20:08;31.30;93.60
21039;DHT22;10678;51.002;4.786;2022-07-05T07:22:34;31.60;92.40
21039;DHT22;10678;51.002;4.786;2022-07-05T07:24:59;32.20;91.10
21039;DHT22;10678;51.002;4.786;2022-07-05T07:27:25;31.80;91.00
21039;DHT22;10678;51.002;4.786;2022-07-05T07:29:51;31.60;91.10
21039;DHT22;10678;51.002;4.786;2022-07-05T07:32:16;31.90;90.60
21039;DHT22;10678;51.002;4.786;2022-07-05T07:34:44;31.60;92.30
21039;DHT22;10678;51.002;4.786;2022-07-05T07:37:09;30.70;92.90
21039;DHT22;10678;51.002;4.786;2022-07-05T07:39:38;29.90;95.00
21039;DHT22;10678;51.002;4.786;2022-07-05T07:42:05;29.50;95.60
21039;DHT22;10678;51.002;4.786;2022-07-05T07:44:31;28.60;97.70
21039;DHT22;10678;51.002;4.786;2022-07-05T07:46:56;28.20;98.60
21039;DHT22;10678;51.002;4.786;2022-07-05T07:49:22;27.60;99.90
21039;DHT22;10678;51.002;4.786;2022-07-05T07:51:47;27.30;99.90
21039;DHT22;10678;51.002;4.786;2022-07-05T07:54:13;27.00;99.90
21039;DHT22;10678;51.002;4.786;2022-07-05T07:56:39;27.50;99.90
21039;DHT22;10678;51.002;4.786;2022-07-05T07:59:05;28.40;99.90
21039;DHT22;10678;51.002;4.786;2022-07-05T08:01:31;28.40;99.50
21039;DHT22;10678;51.002;4.786;2022-07-05T08:03:57;29.60;98.20
21039;DHT22;10678;51.002;4.786;2022-07-05T08:06:23;31.60;94.00
21039;DHT22;10678;51.002;4.786;2022-07-05T08:08:49;33.10;88.80
21039;DHT22;10678;51.002;4.786;2022-07-05T08:11:15;33.50;85.20
21039;DHT22;10678;51.002;4.786;2022-07-05T08:13:41;33.00;84.90
21039;DHT22;10678;51.002;4.786;2022-07-05T08:16:09;32.30;85.40
21039;DHT22;10678;51.002;4.786;2022-07-05T08:18:34;32.20;85.70
21039;DHT22;10678;51.002;4.786;2022-07-05T08:21:19;32.40;84.60
21039;DHT22;10678;51.002;4.786;2022-07-05T08:24:12;33.40;82.30
21039;DHT22;10678;51.002;4.786;2022-07-05T08:26:38;33.90;80.50
21039;DHT22;10678;51.002;4.786;2022-07-05T08:29:08;34.30;80.70
21039;DHT22;10678;51.002;4.786;2022-07-05T08:31:41;34.40;76.70
21039;DHT22;10678;51.002;4.786;2022-07-05T08:34:07;35.90;74.70
21039;DHT22;10678;51.002;4.786;2022-07-05T08:36:33;35.40;73.20
21039;DHT22;10678;51.002;4.786;2022-07-05T08:38:59;35.40;73.30
21039;DHT22;10678;51.002;4.786;2022-07-05T08:41:24;36.10;74.80
21039;DHT22;10678;51.002;4.786;2022-07-05T08:43:51;38.00;68.00
21039;DHT22;10678;51.002;4.786;2022-07-05T08:46:20;39.30;65.50
21039;DHT22;10678;51.002;4.786;2022-07-05T08:48:51;39.80;61.30
21039;DHT22;10678;51.002;4.786;2022-07-05T08:51:21;41.50;56.70
21039;DHT22;10678;51.002;4.786;2022-07-05T08:53:49;42.70;53.50
21039;DHT22;10678;51.002;4.786;2022-07-05T08:56:16;42.10;54.40
21039;DHT22;10678;51.002;4.786;2022-07-05T08:58:44;41.30;54.20
21039;DHT22;10678;51.002;4.786;2022-07-05T09:01:12;39.60;55.60
21039;DHT22;10678;51.002;4.786;2022-07-05T09:03:48;38.20;57.80
21039;DHT22;10678;51.002;4.786;2022-07-05T09:06:20;36.30;58.50
21039;DHT22;10678;51.002;4.786;2022-07-05T09:08:48;35.70;59.70
21039;DHT22;10678;51.002;4.786;2022-07-05T09:11:16;36.80;59.10
21039;DHT22;10678;51.002;4.786;2022-07-05T09:13:49;38.10;56.90
21039;DHT22;10678;51.002;4.786;2022-07-05T09:16:15;37.60;56.90
21039;DHT22;10678;51.002;4.786;2022-07-05T09:21:22;35.90;59.90
21039;DHT22;10678;51.002;4.786;2022-07-05T09:26:44;34.60;61.90
21039;DHT22;10678;51.002;4.786;2022-07-05T09:29:12;33.40;64.00
21039;DHT22;10678;51.002;4.786;2022-07-05T09:31:40;33.00;65.80
21039;DHT22;10678;51.002;4.786;2022-07-05T09:34:10;33.40;66.60
21039;DHT22;10678;51.002;4.786;2022-07-05T09:39:19;33.10;65.50
21039;DHT22;10678;51.002;4.786;2022-07-05T09:47:17;34.60;64.50
21039;DHT22;10678;51.002;4.786;2022-07-05T09:49:51;35.20;62.00
21039;DHT22;10678;51.002;4.786;2022-07-05T09:57:40;37.80;58.70
21039;DHT22;10678;51.002;4.786;2022-07-05T10:02:37;40.00;57.10
21039;DHT22;10678;51.002;4.786;2022-07-05T10:05:16;42.20;54.80
21039;DHT22;10678;51.002;4.786;2022-07-05T10:07:50;42.10;51.50
21039;DHT22;10678;51.002;4.786;2022-07-05T10:10:30;40.30;52.60
21039;DHT22;10678;51.002;4.786;2022-07-05T10:12:57;38.70;54.60
21039;DHT22;10678;51.002;4.786;2022-07-05T10:15:25;38.90;55.80
21039;DHT22;10678;51.002;4.786;2022-07-05T10:18:05;40.00;54.70
21039;DHT22;10678;51.002;4.786;2022-07-05T10:23:08;42.10;48.20
21039;DHT22;10678;51.002;4.786;2022-07-05T10:25:38;40.90;50.30
21039;DHT22;10678;51.002;4.786;2022-07-05T10:28:05;41.60;52.10
21039;DHT22;10678;51.002;4.786;2022-07-05T10:30:32;41.00;50.10
21039;DHT22;10678;51.002;4.786;2022-07-05T10:33:00;38.00;51.10
21039;DHT22;10678;51.002;4.786;2022-07-05T10:35:27;35.90;56.10
21039;DHT22;10678;51.002;4.786;2022-07-05T10:37:53;35.40;57.90
21039;DHT22;10678;51.002;4.786;2022-07-05T10:40:19;34.30;58.00
21039;DHT22;10678;51.002;4.786;2022-07-05T10:42:54;33.50;59.80
21039;DHT22;10678;51.002;4.786;2022-07-05T10:45:30;33.10;60.70
21039;DHT22;10678;51.002;4.786;2022-07-05T11:11:32;43.60;47.80
21039;DHT22;10678;51.002;4.786;2022-07-05T11:13:59;44.90;46.10
21039;DHT22;10678;51.002;4.786;2022-07-05T11:16:31;44.00;43.00
21039;DHT22;10678;51.002;4.786;2022-07-05T11:21:32;40.20;49.20
21039;DHT22;10678;51.002;4.786;2022-07-05T11:26:47;41.00;45.50
21039;DHT22;10678;51.002;4.786;2022-07-05T11:34:50;38.50;49.00
21039;DHT22;10678;51.002;4.786;2022-07-05T11:37:19;36.60;50.20
21039;DHT22;10678;51.002;4.786;2022-07-05T11:42:38;35.00;57.80
21039;DHT22;10678;51.002;4.786;2022-07-05T11:45:10;37.60;54.20
21039;DHT22;10678;51.002;4.786;2022-07-05T11:47:36;39.10;50.50
21039;DHT22;10678;51.002;4.786;2022-07-05T11:50:02;37.90;50.00
21039;DHT22;10678;51.002;4.786;2022-07-05T11:52:33;36.40;52.90
21039;DHT22;10678;51.002;4.786;2022-07-05T11:55:09;37.40;53.50
21039;DHT22;10678;51.002;4.786;2022-07-05T11:57:35;38.70;51.20
21039;DHT22;10678;51.002;4.786;2022-07-05T12:00:01;37.50;51.50
21039;DHT22;10678;51.002;4.786;2022-07-05T12:02:26;36.20;52.60
21039;DHT22;10678;51.002;4.786;2022-07-05T12:04:56;35.10;55.20
21039;DHT22;10678;51.002;4.786;2022-07-05T12:07:29;36.50;55.50
21039;DHT22;10678;51.002;4.786;2022-07-05T12:09:55;38.90;51.80
21039;DHT22;10678;51.002;4.786;2022-07-05T12:12:39;41.50;49.90
21039;DHT22;10678;51.002;4.786;2022-07-05T12:15:15;43.10;46.20
21039;DHT22;10678;51.002;4.786;2022-07-05T12:17:45;41.90;46.60
21039;DHT22;10678;51.002;4.786;2022-07-05T12:20:14;40.40;49.60
21039;DHT22;10678;51.002;4.786;2022-07-05T12:22:44;41.00;48.70
21039;DHT22;10678;51.002;4.786;2022-07-05T12:25:23;41.20;48.10
21039;DHT22;10678;51.002;4.786;2022-07-05T12:27:52;40.00;49.40
21039;DHT22;10678;51.002;4.786;2022-07-05T12:30:18;39.50;51.30
21039;DHT22;10678;51.002;4.786;2022-07-05T12:33:01;41.50;48.50
21039;DHT22;10678;51.002;4.786;2022-07-05T12:35:38;42.30;46.10
21039;DHT22;10678;51.002;4.786;2022-07-05T12:38:04;40.40;47.70
21039;DHT22;10678;51.002;4.786;2022-07-05T12:40:31;38.30;49.80
21039;DHT22;10678;51.002;4.786;2022-07-05T12:43:05;38.30;50.50
21039;DHT22;10678;51.002;4.786;2022-07-05T12:45:31;39.70;48.30
21039;DHT22;10678;51.002;4.786;2022-07-05T12:48:00;39.90;48.20
21039;DHT22;10678;51.002;4.786;2022-07-05T12:50:27;41.10;49.40
21039;DHT22;10678;51.002;4.786;2022-07-05T12:53:02;42.40;46.50
21039;DHT22;10678;51.002;4.786;2022-07-05T12:56:08;43.40;44.70
21039;DHT22;10678;51.002;4.786;2022-07-05T12:58:57;43.20;42.20
21039;DHT22;10678;51.002;4.786;2022-07-05T13:01:38;43.70;45.80
21039;DHT22;10678;51.002;4.786;2022-07-05T13:04:18;44.30;44.10
21039;DHT22;10678;51.002;4.786;2022-07-05T13:09:37;44.70;43.60
21039;DHT22;10678;51.002;4.786;2022-07-05T13:12:19;45.60;41.60
21039;DHT22;10678;51.002;4.786;2022-07-05T13:14:48;45.70;41.60
21039;DHT22;10678;51.002;4.786;2022-07-05T13:17:15;45.70;42.10
21039;DHT22;10678;51.002;4.786;2022-07-05T13:19:43;44.00;41.80
21039;DHT22;10678;51.002;4.786;2022-07-05T13:22:09;41.60;43.40
21039;DHT22;10678;51.002;4.786;2022-07-05T13:24:35;39.00;46.70
21039;DHT22;10678;51.002;4.786;2022-07-05T13:27:01;37.10;49.70
21039;DHT22;10678;51.002;4.786;2022-07-05T13:29:28;37.10;50.10
21039;DHT22;10678;51.002;4.786;2022-07-05T13:31:54;36.80;52.70
21039;DHT22;10678;51.002;4.786;2022-07-05T13:34:20;37.10;50.40
21039;DHT22;10678;51.002;4.786;2022-07-05T13:36:49;35.90;50.10
21039;DHT22;10678;51.002;4.786;2022-07-05T13:39:15;33.60;54.50
21039;DHT22;10678;51.002;4.786;2022-07-05T13:41:40;33.30;55.20
21039;DHT22;10678;51.002;4.786;2022-07-05T13:44:06;32.70;55.80
21039;DHT22;10678;51.002;4.786;2022-07-05T13:46:32;32.20;57.50
21039;DHT22;10678;51.002;4.786;2022-07-05T13:48:57;31.10;58.30
21039;DHT22;10678;51.002;4.786;2022-07-05T13:51:23;30.50;60.70
21039;DHT22;10678;51.002;4.786;2022-07-05T13:53:49;30.00;60.90
21039;DHT22;10678;51.002;4.786;2022-07-05T13:56:14;29.70;62.30
21039;DHT22;10678;51.002;4.786;2022-07-05T13:58:40;30.30;62.30
21039;DHT22;10678;51.002;4.786;2022-07-05T14:01:05;31.10;60.30
21039;DHT22;10678;51.002;4.786;2022-07-05T14:03:31;31.40;59.40
21039;DHT22;10678;51.002;4.786;2022-07-05T14:05:57;31.70;59.90
21039;DHT22;10678;51.002;4.786;2022-07-05T14:08:23;32.00;59.20
21039;DHT22;10678;51.002;4.786;2022-07-05T14:10:50;32.20;59.50
21039;DHT22;10678;51.002;4.786;2022-07-05T14:13:18;31.90;60.50
21039;DHT22;10678;51.002;4.786;2022-07-05T14:15:44;31.60;58.90
21039;DHT22;10678;51.002;4.786;2022-07-05T14:18:11;31.40;59.60
21039;DHT22;10678;51.002;4.786;2022-07-05T14:20:37;30.30;60.60
21039;DHT22;10678;51.002;4.786;2022-07-05T14:23:03;28.90;63.00
21039;DHT22;10678;51.002;4.786;2022-07-05T14:25:28;28.40;65.50
21039;DHT22;10678;51.002;4.786;2022-07-05T14:27:54;28.20;66.60
21039;DHT22;10678;51.002;4.786;2022-07-05T14:30:20;27.60;66.50
21039;DHT22;10678;51.002;4.786;2022-07-05T14:32:45;26.90;69.00
21039;DHT22;10678;51.002;4.786;2022-07-05T14:35:11;26.90;70.80
21039;DHT22;10678;51.002;4.786;2022-07-05T14:37:36;26.90;69.90
21039;DHT22;10678;51.002;4.786;2022-07-05T14:40:02;26.90;71.30
21039;DHT22;10678;51.002;4.786;2022-07-05T14:42:30;27.00;71.10
21039;DHT22;10678;51.002;4.786;2022-07-05T14:44:56;26.90;68.80
21039;DHT22;10678;51.002;4.786;2022-07-05T14:47:22;26.70;70.80
21039;DHT22;10678;51.002;4.786;2022-07-05T14:49:54;26.60;71.00
21039;DHT22;10678;51.002;4.786;2022-07-05T14:52:21;26.50;71.50
21039;DHT22;10678;51.002;4.786;2022-07-05T14:54:47;26.10;72.50
21039;DHT22;10678;51.002;4.786;2022-07-05T14:57:13;25.90;73.00
21039;DHT22;10678;51.002;4.786;2022-07-05T14:59:38;25.70;72.20
21039;DHT22;10678;51.002;4.786;2022-07-05T15:02:04;25.80;74.40
21039;DHT22;10678;51.002;4.786;2022-07-05T15:04:32;25.90;74.90
21039;DHT22;10678;51.002;4.786;2022-07-05T15:06:57;25.90;76.00
21039;DHT22;10678;51.002;4.786;2022-07-05T15:09:23;25.70;74.30
21039;DHT22;10678;51.002;4.786;2022-07-05T15:11:49;25.30;75.20
21039;DHT22;10678;51.002;4.786;2022-07-05T15:14:15;25.00;76.40
21039;DHT22;10678;51.002;4.786;2022-07-05T15:16:40;25.00;78.40
21039;DHT22;10678;51.002;4.786;2022-07-05T15:19:09;24.80;77.80
21039;DHT22;10678;51.002;4.786;2022-07-05T15:21:35;25.00;78.40
21039;DHT22;10678;51.002;4.786;2022-07-05T15:24:00;25.40;78.20
21039;DHT22;10678;51.002;4.786;2022-07-05T15:26:27;25.40;76.90
21039;DHT22;10678;51.002;4.786;2022-07-05T15:29:03;25.30;78.20
21039;DHT22;10678;51.002;4.786;2022-07-05T15:31:34;25.30;75.70
21039;DHT22;10678;51.002;4.786;2022-07-05T15:34:00;25.30;76.70
21039;DHT22;10678;51.002;4.786;2022-07-05T15:36:27;25.30;77.50
21039;DHT22;10678;51.002;4.786;2022-07-05T15:38:54;25.10;76.50
21039;DHT22;10678;51.002;4.786;2022-07-05T15:41:20;25.00;77.90
21039;DHT22;10678;51.002;4.786;2022-07-05T15:43:46;24.90;80.70
21039;DHT22;10678;51.002;4.786;2022-07-05T15:46:13;24.90;80.30
21039;DHT22;10678;51.002;4.786;2022-07-05T15:48:39;24.60;77.50
21039;DHT22;10678;51.002;4.786;2022-07-05T15:51:04;24.20;79.90
21039;DHT22;10678;51.002;4.786;2022-07-05T15:53:33;24.10;79.60
21039;DHT22;10678;51.002;4.786;2022-07-05T15:55:59;23.90;80.80
21039;DHT22;10678;51.002;4.786;2022-07-05T15:58:32;23.90;84.30
21039;DHT22;10678;51.002;4.786;2022-07-05T16:00:59;23.80;83.30
21039;DHT22;10678;51.002;4.786;2022-07-05T16:03:25;23.80;84.60
21039;DHT22;10678;51.002;4.786;2022-07-05T16:05:51;23.90;85.40
21039;DHT22;10678;51.002;4.786;2022-07-05T16:08:17;23.80;83.60
21039;DHT22;10678;51.002;4.786;2022-07-05T16:10:42;23.70;83.40
21039;DHT22;10678;51.002;4.786;2022-07-05T16:13:11;23.50;84.00
21039;DHT22;10678;51.002;4.786;2022-07-05T16:15:41;23.50;85.40
21039;DHT22;10678;51.002;4.786;2022-07-05T16:18:26;23.50;86.40
21039;DHT22;10678;51.002;4.786;2022-07-05T16:20:52;23.40;84.70
21039;DHT22;10678;51.002;4.786;2022-07-05T16:23:17;23.30;86.80
21039;DHT22;10678;51.002;4.786;2022-07-05T16:25:43;23.20;85.30
21039;DHT22;10678;51.002;4.786;2022-07-05T16:28:09;23.10;85.10
21039;DHT22;10678;51.002;4.786;2022-07-05T16:30:34;22.80;86.60
21039;DHT22;10678;51.002;4.786;2022-07-05T16:33:00;22.70;87.60
21039;DHT22;10678;51.002;4.786;2022-07-05T16:35:25;22.90;88.60